Time;durP1;ratioP1;P1;durP2;ratioP2;P2;SDS_P1;SDS_P2;PMS_P1;PMS_P2;Temp;Humidity;BMP_temperature;BMP_pressure;BME280_temperature;BME280_humidity;BME280_pressure;Samples;Min_cycle;Max_cycle;Signal;HPM_P1;HPM_P2
2022/02/15 00:00:30;;;;;;;;;;;;;;;;;;5068097;28;19908;-69
2022/02/15 00:02:56;;;;;;;;;;;;;;;;;;5068082;28;20382;-69
2022/02/15 00:05:22;;;;;;;;;;;;;;;;;;5073428;28;20326;-70
2022/02/15 00:07:49;;;;;;;;;;;;;;;;;;5090275;28;20243;-69
2022/02/15 00:10:15;;;;;;;;;;;;;;;;;;5093051;28;19905;-70
2022/02/15 00:12:41;;;;;;;;;;;;;;;;;;5091164;28;19938;-70
2022/02/15 00:15:07;;;;;;;;;;;;;;;;;;5093238;28;19929;-70
2022/02/15 00:17:34;;;;;;;;;;;;;;;;;;5092970;28;19973;-70
2022/02/15 00:20:00;;;;;;;;;;;;;;;;;;5090430;28;20494;-70
2022/02/15 00:22:26;;;;;;;;;;;;;;;;;;5087973;28;19974;-69
2022/02/15 00:24:52;;;;;;;;;;;;;;;;;;5087552;28;19904;-69
2022/02/15 00:27:18;;;;;;;;;;;;;;;;;;5087951;28;19904;-70
2022/02/15 00:29:45;;;;;;;;;;;;;;;;;;5089941;28;19908;-70
2022/02/15 00:32:11;;;;;;;;;;;;;;;;;;5092890;28;20236;-69
2022/02/15 00:34:37;;;;;;;;;;;;;;;;;;5092845;28;20340;-70
2022/02/15 00:37:03;;;;;;;;;;;;;;;;;;5072794;28;20059;-66
2022/02/15 00:39:30;;;;;;;;;;;;;;;;;;5072642;28;19905;-66
2022/02/15 00:41:56;;;;;;;;;;;;;;;;;;5069997;28;20367;-69
2022/02/15 00:44:22;;;;;;;;;;;;;;;;;;5067515;28;19947;-69
2022/02/15 00:46:49;;;;;;;;;;;;;;;;;;5067614;28;19908;-69
2022/02/15 00:49:15;;;;;;;;;;;;;;;;;;5067563;28;19944;-70
2022/02/15 00:51:41;;;;;;;;;;;;;;;;;;5068645;28;20245;-69
2022/02/15 00:54:07;;;;;;;;;;;;;;;;;;5072647;28;20298;-69
2022/02/15 00:56:33;;;;;;;;;;;;;;;;;;5072204;28;20352;-69
2022/02/15 00:59:00;;;;;;;;;;;;;;;;;;5072017;28;19988;-69
2022/02/15 01:01:26;;;;;;;;;;;;;;;;;;5072616;28;19911;-69
2022/02/15 01:03:52;;;;;;;;;;;;;;;;;;5070834;28;20389;-69
2022/02/15 01:06:18;;;;;;;;;;;;;;;;;;5080432;28;19951;-69
2022/02/15 01:08:45;;;;;;;;;;;;;;;;;;5087639;28;19911;-69
2022/02/15 01:11:11;;;;;;;;;;;;;;;;;;5085678;28;20382;-70
2022/02/15 01:13:37;;;;;;;;;;;;;;;;;;5086413;28;19951;-70
2022/02/15 01:16:04;;;;;;;;;;;;;;;;;;5091264;28;19965;-69
2022/02/15 01:18:30;;;;;;;;;;;;;;;;;;5093838;28;19912;-69
2022/02/15 01:20:56;;;;;;;;;;;;;;;;;;5096318;28;19904;-70
2022/02/15 01:23:22;;;;;;;;;;;;;;;;;;5096329;28;20033;-70
2022/02/15 01:25:49;;;;;;;;;;;;;;;;;;5095197;28;19911;-69
2022/02/15 01:28:15;;;;;;;;;;;;;;;;;;5090707;28;19911;-69
2022/02/15 01:30:41;;;;;;;;;;;;;;;;;;5091475;28;20289;-70
2022/02/15 01:33:07;;;;;;;;;;;;;;;;;;5090598;28;19914;-69
2022/02/15 01:35:34;;;;;;;;;;;;;;;;;;5090893;28;20309;-70
2022/02/15 01:38:00;;;;;;;;;;;;;;;;;;5096054;28;19938;-70
2022/02/15 01:40:26;;;;;;;;;;;;;;;;;;5096027;28;19974;-70
2022/02/15 01:42:52;;;;;;;;;;;;;;;;;;5095707;28;19914;-69
2022/02/15 01:45:19;;;;;;;;;;;;;;;;;;5093678;28;19951;-69
2022/02/15 01:47:46;;;;;;;;;;;;;;;;;;5095136;28;19983;-70
2022/02/15 01:50:12;;;;;;;;;;;;;;;;;;5090219;28;19992;-70
2022/02/15 01:52:38;;;;;;;;;;;;;;;;;;5090607;28;19922;-70
2022/02/15 01:55:04;;;;;;;;;;;;;;;;;;5090467;28;19910;-70
2022/02/15 01:57:31;;;;;;;;;;;;;;;;;;5076940;28;19974;-72
2022/02/15 01:59:57;;;;;;;;;;;;;;;;;;5074853;28;19995;-70
2022/02/15 02:02:23;;;;;;;;;;;;;;;;;;5075386;28;19912;-74
2022/02/15 02:07:34;;;;;;;;;;;;;;;;;;5095096;28;20353;-69
2022/02/15 02:10:00;;;;;;;;;;;;;;;;;;5095195;28;19948;-68
2022/02/15 02:12:27;;;;;;;;;;;;;;;;;;5090265;28;19956;-70
2022/02/15 02:14:53;;;;;;;;;;;;;;;;;;5090215;28;20019;-70
2022/02/15 02:17:19;;;;;;;;;;;;;;;;;;5090048;28;20342;-70
2022/02/15 02:19:45;;;;;;;;;;;;;;;;;;5089662;28;19911;-67
2022/02/15 02:22:11;;;;;;;;;;;;;;;;;;5094570;28;19904;-68
2022/02/15 02:24:41;;;;;;;;;;;;;;;;;;5094984;28;19904;-68
2022/02/15 02:27:07;;;;;;;;;;;;;;;;;;5087323;28;20018;-69
2022/02/15 02:29:33;;;;;;;;;;;;;;;;;;5094607;28;19930;-70
2022/02/15 02:32:00;;;;;;;;;;;;;;;;;;5095030;28;19908;-69
2022/02/15 02:34:26;;;;;;;;;;;;;;;;;;5089891;28;19904;-69
2022/02/15 02:36:52;;;;;;;;;;;;;;;;;;5089587;28;19961;-70
2022/02/15 02:39:19;;;;;;;;;;;;;;;;;;5089631;28;19907;-69
2022/02/15 02:41:46;;;;;;;;;;;;;;;;;;5089502;28;19908;-70
2022/02/15 02:44:12;;;;;;;;;;;;;;;;;;5093682;28;19995;-69
2022/02/15 02:46:38;;;;;;;;;;;;;;;;;;5094621;28;19911;-69
2022/02/15 02:49:04;;;;;;;;;;;;;;;;;;5094594;28;19900;-70
2022/02/15 02:51:31;;;;;;;;;;;;;;;;;;5093910;28;19912;-69
2022/02/15 02:53:57;;;;;;;;;;;;;;;;;;5094836;28;19950;-69
2022/02/15 02:56:23;;;;;;;;;;;;;;;;;;5086979;28;20393;-70
2022/02/15 02:58:49;;;;;;;;;;;;;;;;;;5069843;28;19920;-70
2022/02/15 03:01:16;;;;;;;;;;;;;;;;;;5068982;28;19979;-70
2022/02/15 03:03:42;;;;;;;;;;;;;;;;;;5068969;28;20145;-69
2022/02/15 03:06:08;;;;;;;;;;;;;;;;;;5072489;28;19905;-69
2022/02/15 03:08:34;;;;;;;;;;;;;;;;;;5073672;28;19929;-69
2022/02/15 03:11:01;;;;;;;;;;;;;;;;;;5074149;28;20247;-69
2022/02/15 03:13:27;;;;;;;;;;;;;;;;;;5074036;28;20343;-70
2022/02/15 03:15:53;;;;;;;;;;;;;;;;;;5073790;28;19904;-69
2022/02/15 03:18:19;;;;;;;;;;;;;;;;;;5070113;28;19913;-69
2022/02/15 03:20:45;;;;;;;;;;;;;;;;;;5080831;28;19958;-70
2022/02/15 03:23:12;;;;;;;;;;;;;;;;;;5073276;28;19913;-69
2022/02/15 03:25:38;;;;;;;;;;;;;;;;;;5069100;28;19908;-69
2022/02/15 03:28:04;;;;;;;;;;;;;;;;;;5071667;28;20276;-69
2022/02/15 03:30:30;;;;;;;;;;;;;;;;;;5073795;28;19911;-69
2022/02/15 03:32:58;;;;;;;;;;;;;;;;;;5073592;28;19904;-70
2022/02/15 03:35:24;;;;;;;;;;;;;;;;;;5074544;28;19908;-69
2022/02/15 03:37:50;;;;;;;;;;;;;;;;;;5073267;28;19912;-69
2022/02/15 03:40:17;;;;;;;;;;;;;;;;;;5070078;28;19904;-69
2022/02/15 03:45:28;;;;;;;;;;;;;;;;;;5068317;28;20009;-69
2022/02/15 03:47:55;;;;;;;;;;;;;;;;;;5068275;28;19904;-69
2022/02/15 03:50:22;;;;;;;;;;;;;;;;;;5079517;28;19996;-69
2022/02/15 03:52:50;;;;;;;;;;;;;;;;;;5092906;28;19904;-69
2022/02/15 03:55:16;;;;;;;;;;;;;;;;;;5090444;28;19912;-70
2022/02/15 03:57:43;;;;;;;;;;;;;;;;;;5079195;28;19912;-69
2022/02/15 04:00:09;;;;;;;;;;;;;;;;;;5055349;28;21605;-69
2022/02/15 04:02:35;;;;;;;;;;;;;;;;;;5069736;28;19904;-69
2022/02/15 04:05:01;;;;;;;;;;;;;;;;;;5073737;28;19916;-69
2022/02/15 04:07:28;;;;;;;;;;;;;;;;;;5067963;28;19912;-70
2022/02/15 04:09:54;;;;;;;;;;;;;;;;;;5067500;28;19915;-70
2022/02/15 04:12:20;;;;;;;;;;;;;;;;;;5070404;28;19998;-69
2022/02/15 04:14:46;;;;;;;;;;;;;;;;;;5073003;28;19927;-69
2022/02/15 04:17:13;;;;;;;;;;;;;;;;;;5072863;28;20011;-69
2022/02/15 04:19:39;;;;;;;;;;;;;;;;;;5072601;28;20040;-69
2022/02/15 04:22:05;;;;;;;;;;;;;;;;;;5073930;28;19908;-68
2022/02/15 04:24:31;;;;;;;;;;;;;;;;;;5070083;28;19904;-66
2022/02/15 04:26:58;;;;;;;;;;;;;;;;;;5067329;28;19904;-66
2022/02/15 04:29:26;;;;;;;;;;;;;;;;;;5067772;28;19908;-64
2022/02/15 04:31:52;;;;;;;;;;;;;;;;;;5067932;28;20711;-65
2022/02/15 04:34:18;;;;;;;;;;;;;;;;;;5069551;28;19927;-67
2022/02/15 04:36:44;;;;;;;;;;;;;;;;;;5091740;28;19908;-67
2022/02/15 04:39:12;;;;;;;;;;;;;;;;;;5087407;28;19912;-68
2022/02/15 04:41:39;;;;;;;;;;;;;;;;;;5072321;28;19904;-67
2022/02/15 04:44:05;;;;;;;;;;;;;;;;;;5073614;28;19908;-67
2022/02/15 04:46:32;;;;;;;;;;;;;;;;;;5070628;28;19913;-68
2022/02/15 04:48:58;;;;;;;;;;;;;;;;;;5067703;28;19958;-67
2022/02/15 04:51:24;;;;;;;;;;;;;;;;;;5067477;28;19912;-66
2022/02/15 04:53:50;;;;;;;;;;;;;;;;;;5071223;28;19916;-66
2022/02/15 04:56:17;;;;;;;;;;;;;;;;;;5072855;28;19936;-64
2022/02/15 04:58:43;;;;;;;;;;;;;;;;;;5075862;28;19973;-66
2022/02/15 05:01:13;;;;;;;;;;;;;;;;;;5076617;28;19974;-64
2022/02/15 05:03:39;;;;;;;;;;;;;;;;;;5076460;28;19912;-66
2022/02/15 05:06:05;;;;;;;;;;;;;;;;;;5076494;28;19958;-66
2022/02/15 05:08:31;;;;;;;;;;;;;;;;;;5074599;28;19953;-66
2022/02/15 05:10:58;;;;;;;;;;;;;;;;;;5071326;28;19908;-66
2022/02/15 05:13:24;;;;;;;;;;;;;;;;;;5071908;28;19908;-65
2022/02/15 05:15:50;;;;;;;;;;;;;;;;;;5070844;28;19908;-66
2022/02/15 05:18:16;;;;;;;;;;;;;;;;;;5071940;28;20267;-68
2022/02/15 05:20:43;;;;;;;;;;;;;;;;;;5076311;28;19911;-67
2022/02/15 05:23:09;;;;;;;;;;;;;;;;;;5076258;28;19982;-67
2022/02/15 05:25:36;;;;;;;;;;;;;;;;;;5075892;28;19904;-65
2022/02/15 05:28:02;;;;;;;;;;;;;;;;;;5075959;28;19923;-65
2022/02/15 05:30:28;;;;;;;;;;;;;;;;;;5073999;28;19954;-65
2022/02/15 05:32:54;;;;;;;;;;;;;;;;;;5073382;28;19923;-65
2022/02/15 05:35:21;;;;;;;;;;;;;;;;;;5091077;28;20635;-65
2022/02/15 05:37:47;;;;;;;;;;;;;;;;;;5091035;28;20305;-66
2022/02/15 05:40:13;;;;;;;;;;;;;;;;;;5091240;28;20373;-66
2022/02/15 05:42:39;;;;;;;;;;;;;;;;;;5095812;28;19951;-68
2022/02/15 05:45:06;;;;;;;;;;;;;;;;;;5095889;28;19911;-67
2022/02/15 05:47:32;;;;;;;;;;;;;;;;;;5085730;28;20347;-70
2022/02/15 05:52:43;;;;;;;;;;;;;;;;;;5074089;28;20396;-68
2022/02/15 05:55:09;;;;;;;;;;;;;;;;;;5070428;28;20267;-68
2022/02/15 05:57:35;;;;;;;;;;;;;;;;;;5070232;28;20565;-68
2022/02/15 06:00:01;;;;;;;;;;;;;;;;;;5070138;28;19908;-68
2022/02/15 06:02:28;;;;;;;;;;;;;;;;;;5070792;28;19949;-68
2022/02/15 06:04:54;;;;;;;;;;;;;;;;;;5074543;28;19998;-69
2022/02/15 06:07:20;;;;;;;;;;;;;;;;;;5075447;28;20296;-69
2022/02/15 06:09:46;;;;;;;;;;;;;;;;;;5075325;28;20363;-69
2022/02/15 06:12:13;;;;;;;;;;;;;;;;;;5075190;28;19927;-65
2022/02/15 06:14:39;;;;;;;;;;;;;;;;;;5074522;28;19904;-70
2022/02/15 06:17:05;;;;;;;;;;;;;;;;;;5081623;28;19916;-68
2022/02/15 06:19:32;;;;;;;;;;;;;;;;;;5090292;28;19903;-68
2022/02/15 06:21:58;;;;;;;;;;;;;;;;;;5090093;28;19904;-69
2022/02/15 06:24:24;;;;;;;;;;;;;;;;;;5089324;28;20305;-68
2022/02/15 06:26:50;;;;;;;;;;;;;;;;;;5093880;28;19904;-68
2022/02/15 06:29:16;;;;;;;;;;;;;;;;;;5093118;28;20351;-68
2022/02/15 06:31:43;;;;;;;;;;;;;;;;;;5093107;28;19908;-68
2022/02/15 06:34:09;;;;;;;;;;;;;;;;;;5092598;28;19904;-69
2022/02/15 06:36:35;;;;;;;;;;;;;;;;;;5092970;28;20432;-68
2022/02/15 06:39:01;;;;;;;;;;;;;;;;;;5088094;28;20127;-68
2022/02/15 06:41:28;;;;;;;;;;;;;;;;;;5088747;28;20398;-68
2022/02/15 06:43:54;;;;;;;;;;;;;;;;;;5089187;28;19904;-68
2022/02/15 06:46:20;;;;;;;;;;;;;;;;;;5087392;28;19908;-68
2022/02/15 06:48:46;;;;;;;;;;;;;;;;;;5093932;28;19911;-68
2022/02/15 06:51:13;;;;;;;;;;;;;;;;;;5094155;28;19900;-68
2022/02/15 06:53:39;;;;;;;;;;;;;;;;;;5094348;28;19916;-68
2022/02/15 06:56:09;;;;;;;;;;;;;;;;;;5094454;28;19932;-68
2022/02/15 06:58:35;;;;;;;;;;;;;;;;;;5094284;28;20297;-69
2022/02/15 07:01:01;;;;;;;;;;;;;;;;;;5070232;28;20042;-68
2022/02/15 07:03:27;;;;;;;;;;;;;;;;;;5068821;28;20274;-68
2022/02/15 07:05:54;;;;;;;;;;;;;;;;;;5068414;28;20343;-68
2022/02/15 07:08:20;;;;;;;;;;;;;;;;;;5068920;28;19911;-68
2022/02/15 07:10:46;;;;;;;;;;;;;;;;;;5072657;28;19911;-68
2022/02/15 07:13:13;;;;;;;;;;;;;;;;;;5073798;28;19904;-68
2022/02/15 07:15:39;;;;;;;;;;;;;;;;;;5072901;28;20352;-69
2022/02/15 07:18:05;;;;;;;;;;;;;;;;;;5073709;28;19912;-68
2022/02/15 07:20:32;;;;;;;;;;;;;;;;;;5073617;28;19908;-68
2022/02/15 07:22:58;;;;;;;;;;;;;;;;;;5050924;28;20313;-68
2022/02/15 07:25:25;;;;;;;;;;;;;;;;;;5068493;28;19948;-68
2022/02/15 07:27:51;;;;;;;;;;;;;;;;;;5068233;28;20419;-68
2022/02/15 07:30:17;;;;;;;;;;;;;;;;;;5079715;28;19904;-68
2022/02/15 07:32:43;;;;;;;;;;;;;;;;;;5074276;28;20305;-68
2022/02/15 07:35:10;;;;;;;;;;;;;;;;;;5093759;28;20343;-68
2022/02/15 07:37:36;;;;;;;;;;;;;;;;;;5092223;28;20346;-68
2022/02/15 07:40:02;;;;;;;;;;;;;;;;;;5073276;28;19999;-68
2022/02/15 07:42:29;;;;;;;;;;;;;;;;;;5073447;28;19908;-68
2022/02/15 07:44:55;;;;;;;;;;;;;;;;;;5069300;28;19908;-69
2022/02/15 07:47:21;;;;;;;;;;;;;;;;;;5067935;28;20360;-68
2022/02/15 07:49:47;;;;;;;;;;;;;;;;;;5067855;28;20412;-68
2022/02/15 07:52:14;;;;;;;;;;;;;;;;;;5067936;28;19911;-69
2022/02/15 07:54:40;;;;;;;;;;;;;;;;;;5070468;28;19920;-68
2022/02/15 07:57:06;;;;;;;;;;;;;;;;;;5073269;28;19916;-68
2022/02/15 07:59:33;;;;;;;;;;;;;;;;;;5073269;28;19905;-68
2022/02/15 08:01:59;;;;;;;;;;;;;;;;;;5072991;28;19952;-68
2022/02/15 08:04:25;;;;;;;;;;;;;;;;;;5072796;28;19908;-68
2022/02/15 08:06:54;;;;;;;;;;;;;;;;;;5069686;28;19908;-68
2022/02/15 08:09:22;;;;;;;;;;;;;;;;;;5081583;28;19908;-68
2022/02/15 08:11:54;;;;;;;;;;;;;;;;;;5087899;28;19910;-68
2022/02/15 08:14:21;;;;;;;;;;;;;;;;;;5087836;28;19965;-68
2022/02/15 08:16:47;;;;;;;;;;;;;;;;;;5090753;28;19904;-68
2022/02/15 08:19:14;;;;;;;;;;;;;;;;;;5093044;28;20373;-68
2022/02/15 08:21:40;;;;;;;;;;;;;;;;;;5092721;28;19915;-68
2022/02/15 08:24:06;;;;;;;;;;;;;;;;;;5092780;28;19947;-68
2022/02/15 08:26:32;;;;;;;;;;;;;;;;;;5092575;28;19919;-68
2022/02/15 08:28:59;;;;;;;;;;;;;;;;;;5089598;28;19908;-68
2022/02/15 08:31:25;;;;;;;;;;;;;;;;;;5087867;28;19931;-68
2022/02/15 08:33:51;;;;;;;;;;;;;;;;;;5087530;28;19911;-68
2022/02/15 08:36:18;;;;;;;;;;;;;;;;;;5087650;28;19965;-68
2022/02/15 08:38:44;;;;;;;;;;;;;;;;;;5080695;28;19924;-68
2022/02/15 08:41:12;;;;;;;;;;;;;;;;;;5072086;28;20059;-69
2022/02/15 08:43:39;;;;;;;;;;;;;;;;;;5089624;28;19915;-68
2022/02/15 08:46:05;;;;;;;;;;;;;;;;;;5092711;28;20346;-68
2022/02/15 08:48:31;;;;;;;;;;;;;;;;;;5092854;28;19969;-68
2022/02/15 08:50:57;;;;;;;;;;;;;;;;;;5089826;28;19904;-68
2022/02/15 08:53:24;;;;;;;;;;;;;;;;;;5087265;28;19919;-68
2022/02/15 08:55:51;;;;;;;;;;;;;;;;;;5087000;28;19911;-68
2022/02/15 08:58:18;;;;;;;;;;;;;;;;;;5072596;28;19920;-68
2022/02/15 09:00:44;;;;;;;;;;;;;;;;;;5069474;28;19908;-68
2022/02/15 09:03:10;;;;;;;;;;;;;;;;;;5072390;28;20352;-68
2022/02/15 09:05:36;;;;;;;;;;;;;;;;;;5072350;28;19911;-68
2022/02/15 09:08:03;;;;;;;;;;;;;;;;;;5072188;28;19911;-68
2022/02/15 09:10:29;;;;;;;;;;;;;;;;;;5072427;28;19908;-68
2022/02/15 09:12:55;;;;;;;;;;;;;;;;;;5069304;28;19957;-68
2022/02/15 09:15:21;;;;;;;;;;;;;;;;;;5066997;28;19972;-68
2022/02/15 09:17:48;;;;;;;;;;;;;;;;;;5066847;28;20355;-69
2022/02/15 09:20:14;;;;;;;;;;;;;;;;;;5067104;28;19904;-68
2022/02/15 09:22:40;;;;;;;;;;;;;;;;;;5068753;28;19905;-68
2022/02/15 09:25:06;;;;;;;;;;;;;;;;;;5072284;28;20240;-68
2022/02/15 09:27:32;;;;;;;;;;;;;;;;;;5078899;28;19919;-68
2022/02/15 09:29:59;;;;;;;;;;;;;;;;;;5091825;28;19927;-69
2022/02/15 09:32:25;;;;;;;;;;;;;;;;;;5092250;28;19930;-68
2022/02/15 09:34:51;;;;;;;;;;;;;;;;;;5090212;28;19907;-68
2022/02/15 09:37:17;;;;;;;;;;;;;;;;;;5087040;28;19912;-68
2022/02/15 09:39:44;;;;;;;;;;;;;;;;;;5088460;28;20033;-68
2022/02/15 09:42:10;;;;;;;;;;;;;;;;;;5090750;28;20637;-68
2022/02/15 09:44:36;;;;;;;;;;;;;;;;;;5091627;28;20348;-68
2022/02/15 09:47:02;;;;;;;;;;;;;;;;;;5095612;28;19908;-68
2022/02/15 09:52:13;;;;;;;;;;;;;;;;;;5095638;28;20004;-68
2022/02/15 09:54:39;;;;;;;;;;;;;;;;;;5093725;28;19912;-68
2022/02/15 09:57:06;;;;;;;;;;;;;;;;;;5092478;28;19908;-68
2022/02/15 09:59:32;;;;;;;;;;;;;;;;;;5090275;28;19908;-68
2022/02/15 10:01:58;;;;;;;;;;;;;;;;;;5090130;28;19904;-68
2022/02/15 10:04:27;;;;;;;;;;;;;;;;;;5071562;28;19909;-68
2022/02/15 10:06:53;;;;;;;;;;;;;;;;;;5071498;28;20274;-68
2022/02/15 10:09:20;;;;;;;;;;;;;;;;;;5075049;28;19943;-68
2022/02/15 10:11:47;;;;;;;;;;;;;;;;;;5075151;28;19958;-68
2022/02/15 10:14:13;;;;;;;;;;;;;;;;;;5074830;28;19904;-68
2022/02/15 10:16:39;;;;;;;;;;;;;;;;;;5075139;28;20540;-68
2022/02/15 10:19:06;;;;;;;;;;;;;;;;;;5073088;28;20360;-68
2022/02/15 10:21:32;;;;;;;;;;;;;;;;;;5069385;28;19904;-68
2022/02/15 10:23:59;;;;;;;;;;;;;;;;;;5069645;28;19905;-68
2022/02/15 10:26:25;;;;;;;;;;;;;;;;;;5069881;28;20659;-68
2022/02/15 10:28:51;;;;;;;;;;;;;;;;;;5089931;28;19904;-68
2022/02/15 10:31:17;;;;;;;;;;;;;;;;;;5094983;28;20350;-68
2022/02/15 10:33:48;;;;;;;;;;;;;;;;;;5094979;28;19943;-68
2022/02/15 10:36:15;;;;;;;;;;;;;;;;;;5095176;28;19972;-68
2022/02/15 10:38:41;;;;;;;;;;;;;;;;;;5094497;28;20479;-68
2022/02/15 10:41:07;;;;;;;;;;;;;;;;;;5093180;28;19912;-68
2022/02/15 10:43:33;;;;;;;;;;;;;;;;;;5071169;28;20627;-68
2022/02/15 10:46:00;;;;;;;;;;;;;;;;;;5089540;28;19911;-68
2022/02/15 10:48:26;;;;;;;;;;;;;;;;;;5089476;28;19997;-68
2022/02/15 10:50:52;;;;;;;;;;;;;;;;;;5088936;28;19908;-68
2022/02/15 10:53:18;;;;;;;;;;;;;;;;;;5094411;28;19916;-68
2022/02/15 10:55:44;;;;;;;;;;;;;;;;;;5094359;28;20884;-68
2022/02/15 10:58:13;;;;;;;;;;;;;;;;;;5094186;28;19918;-68
2022/02/15 11:00:39;;;;;;;;;;;;;;;;;;5094228;28;19904;-68
2022/02/15 11:03:05;;;;;;;;;;;;;;;;;;5093395;28;20723;-68
2022/02/15 11:05:32;;;;;;;;;;;;;;;;;;5089087;28;19946;-68
2022/02/15 11:08:01;;;;;;;;;;;;;;;;;;5089068;28;19904;-68
2022/02/15 11:10:27;;;;;;;;;;;;;;;;;;5088901;28;19911;-68
2022/02/15 11:12:53;;;;;;;;;;;;;;;;;;5089146;28;19904;-68
2022/02/15 11:15:20;;;;;;;;;;;;;;;;;;5093797;28;19904;-68
2022/02/15 11:17:46;;;;;;;;;;;;;;;;;;5094183;28;20016;-68
2022/02/15 11:20:12;;;;;;;;;;;;;;;;;;5088215;28;20379;-68
2022/02/15 11:22:38;;;;;;;;;;;;;;;;;;5073749;28;20370;-68
2022/02/15 11:25:06;;;;;;;;;;;;;;;;;;5072871;28;19911;-68
2022/02/15 11:27:32;;;;;;;;;;;;;;;;;;5068407;28;19911;-68
2022/02/15 11:30:00;;;;;;;;;;;;;;;;;;5067897;28;19911;-67
2022/02/15 11:32:26;;;;;;;;;;;;;;;;;;5068312;28;19905;-67
2022/02/15 11:34:52;;;;;;;;;;;;;;;;;;5068694;28;20259;-68
2022/02/15 11:37:19;;;;;;;;;;;;;;;;;;5073526;28;20394;-68
2022/02/15 11:39:45;;;;;;;;;;;;;;;;;;5073333;28;19981;-68
2022/02/15 11:42:12;;;;;;;;;;;;;;;;;;5073331;28;19908;-68
2022/02/15 11:44:38;;;;;;;;;;;;;;;;;;5072937;28;19905;-68
2022/02/15 11:47:04;;;;;;;;;;;;;;;;;;5072729;28;20350;-68
2022/02/15 11:49:30;;;;;;;;;;;;;;;;;;5067855;28;19983;-68
2022/02/15 11:51:57;;;;;;;;;;;;;;;;;;5087678;28;19955;-68
2022/02/15 11:54:24;;;;;;;;;;;;;;;;;;5088243;28;20285;-68
2022/02/15 11:56:51;;;;;;;;;;;;;;;;;;5088034;28;20594;-68
2022/02/15 11:59:17;;;;;;;;;;;;;;;;;;5093191;28;19911;-67
2022/02/15 12:01:43;;;;;;;;;;;;;;;;;;5088582;28;19908;-68
2022/02/15 12:04:10;;;;;;;;;;;;;;;;;;5073084;28;20343;-67
2022/02/15 12:06:36;;;;;;;;;;;;;;;;;;5072744;28;20305;-68
2022/02/15 12:09:02;;;;;;;;;;;;;;;;;;5072902;28;19959;-68
2022/02/15 12:11:28;;;;;;;;;;;;;;;;;;5067663;28;19904;-68
2022/02/15 12:13:55;;;;;;;;;;;;;;;;;;5067621;28;19937;-68
2022/02/15 12:16:23;;;;;;;;;;;;;;;;;;5067379;28;19904;-67
2022/02/15 12:18:49;;;;;;;;;;;;;;;;;;5087567;28;19919;-68
2022/02/15 12:21:15;;;;;;;;;;;;;;;;;;5092616;28;19911;-67
2022/02/15 12:23:43;;;;;;;;;;;;;;;;;;5092907;28;19915;-67
2022/02/15 12:26:09;;;;;;;;;;;;;;;;;;5092940;28;19904;-68
2022/02/15 12:28:35;;;;;;;;;;;;;;;;;;5093132;28;19904;-67
2022/02/15 12:31:01;;;;;;;;;;;;;;;;;;5092711;28;19908;-67
2022/02/15 12:33:28;;;;;;;;;;;;;;;;;;5087504;28;19908;-68
2022/02/15 12:47:53;;;;;;;2.87;1.80;;;;;;;;;;5073956;27;2114404;-61
2022/02/15 12:50:21;;;;;;;3.73;1.90;;;;;;;;;;5104579;28;20032;-61
2022/02/15 12:52:47;;;;;;;2.87;1.40;;;;;;;;;;5104279;28;20647;-61
2022/02/15 12:55:18;;;;;;;5.67;1.67;;;;;;;;;;5104536;28;20770;-61
2022/02/15 12:57:46;;;;;;;5.43;1.83;;;;;;;;;;5104970;28;20252;-61
2022/02/15 13:00:14;;;;;;;5.73;1.57;;;;;;;;;;5110053;28;20249;-61
2022/02/15 13:02:45;;;;;;;5.30;1.90;;;;;;;;;;5109771;28;20287;-60
2022/02/15 13:05:12;;;;;;;2.77;1.47;;;;;;;;;;5109670;28;20264;-61
2022/02/15 13:07:49;;;;;;;5.00;1.80;;;;;;;;;;5109219;28;20272;-60
2022/02/15 13:10:16;;;;;;;5.73;1.90;;;;;;;;;;5107988;28;20268;-60
2022/02/15 13:12:43;;;;;;;3.93;1.67;;;;;;;;;;5104176;28;20256;-60
2022/02/15 13:15:10;;;;;;;3.47;1.60;;;;;;;;;;5104181;28;20279;-60
2022/02/15 13:17:46;;;;;;;3.90;1.80;;;;;;;;;;5103927;28;20317;-61
2022/02/15 13:20:16;;;;;;;2.72;1.52;;;;;;;;;;5105014;28;20267;-60
2022/02/15 13:22:43;;;;;;;6.23;1.80;;;;;;;;;;5109174;28;20024;-61
2022/02/15 13:25:10;;;;;;;8.07;1.80;;;;;;;;;;5109230;28;20260;-62
2022/02/15 13:27:37;;;;;;;3.40;1.90;;;;;;;;;;5108769;28;20260;-61
2022/02/15 13:30:17;;;;;;;3.77;1.87;;;;;;;;;;5108924;28;20297;-61
2022/02/15 13:32:44;;;;;;;5.40;2.10;;;;;;;;;;5107001;28;20685;-62
2022/02/15 13:35:15;;;;;;;4.13;1.80;;;;;;;;;;5103228;28;20252;-60
2022/02/15 13:37:47;;;;;;;4.40;2.50;;;;;;;;;;5103133;28;20271;-61
2022/02/15 13:40:13;;;;;;;5.43;1.73;;;;;;;;;;5103603;28;20248;-61
2022/02/15 13:42:40;;;;;;;3.23;1.97;;;;;;;;;;5105013;28;20259;-60
2022/02/15 13:45:07;;;;;;;3.63;2.03;;;;;;;;;;5108809;28;20253;-61
2022/02/15 13:47:34;;;;;;;5.23;1.63;;;;;;;;;;5102572;28;20276;-60
2022/02/15 13:50:01;;;;;;;4.17;2.23;;;;;;;;;;5094254;28;20645;-60
2022/02/15 13:52:30;;;;;;;5.07;2.40;;;;;;;;;;5095266;28;20267;-61
2022/02/15 13:54:56;;;;;;;10.63;2.53;;;;;;;;;;5092743;28;20315;-61
2022/02/15 13:57:23;;;;;;;5.13;2.40;;;;;;;;;;5089448;28;20835;-61
2022/02/15 13:59:50;;;;;;;5.97;2.70;;;;;;;;;;5089610;28;20797;-61
2022/02/15 14:02:16;;;;;;;16.30;5.53;;;;;;;;;;5089744;28;20256;-62
2022/02/15 14:04:43;;;;;;;12.97;5.17;;;;;;;;;;5091150;28;20265;-62
2022/02/15 14:07:10;;;;;;;13.80;4.23;;;;;;;;;;5095027;28;20253;-62
2022/02/15 14:09:36;;;;;;;10.57;4.87;;;;;;;;;;5095019;28;20653;-63
2022/02/15 14:12:05;;;;;;;7.67;4.30;;;;;;;;;;5094842;28;20261;-63
2022/02/15 14:14:32;;;;;;;10.77;5.03;;;;;;;;;;5094830;28;20281;-63
2022/02/15 14:19:44;;;;;;;8.70;3.70;;;;;;;;;;5089522;28;20352;-63
2022/02/15 14:22:12;;;;;;;5.23;2.70;;;;;;;;;;5089332;28;20095;-63
2022/02/15 14:24:39;;;;;;;4.43;2.30;;;;;;;;;;5089074;28;20280;-63
2022/02/15 14:27:05;;;;;;;6.57;3.03;;;;;;;;;;5091416;28;20267;-63
2022/02/15 14:29:32;;;;;;;6.90;3.20;;;;;;;;;;5094560;28;20302;-63
2022/02/15 14:31:59;;;;;;;5.63;2.83;;;;;;;;;;5094509;28;20028;-64
2022/02/15 14:34:25;;;;;;;5.90;2.83;;;;;;;;;;5094547;28;20043;-63
2022/02/15 14:36:52;;;;;;;6.73;3.00;;;;;;;;;;5094265;28;20405;-64
2022/02/15 14:39:19;;;;;;;4.83;2.37;;;;;;;;;;5091415;28;20514;-63
2022/02/15 14:41:45;;;;;;;5.07;2.87;;;;;;;;;;5088577;28;20528;-63
2022/02/15 14:44:12;;;;;;;6.50;2.20;;;;;;;;;;5088737;28;20023;-63
2022/02/15 14:46:39;;;;;;;5.00;2.00;;;;;;;;;;5087939;28;20024;-63
2022/02/15 14:49:05;;;;;;;3.40;1.53;;;;;;;;;;5090492;28;20044;-63
2022/02/15 14:51:32;;;;;;;5.13;2.70;;;;;;;;;;5094281;28;20031;-64
2022/02/15 14:53:59;;;;;;;4.87;2.00;;;;;;;;;;5093458;28;20020;-63
2022/02/15 14:56:27;;;;;;;3.97;2.03;;;;;;;;;;5093900;28;20040;-63
2022/02/15 14:58:54;;;;;;;4.93;1.87;;;;;;;;;;5093179;28;20028;-63
2022/02/15 15:01:21;;;;;;;6.47;1.80;;;;;;;;;;5091234;28;20028;-63
2022/02/15 15:03:48;;;;;;;3.53;1.83;;;;;;;;;;5088423;28;20051;-64
2022/02/15 15:06:15;;;;;;;6.20;2.00;;;;;;;;;;5088115;28;20119;-64
2022/02/15 15:08:42;;;;;;;3.73;2.07;;;;;;;;;;5087834;28;20020;-63
2022/02/15 15:11:08;;;;;;;3.30;1.80;;;;;;;;;;5090048;28;20086;-64
2022/02/15 15:13:35;;;;;;;5.50;1.90;;;;;;;;;;5093162;28;20020;-64
2022/02/15 15:16:02;;;;;;;3.97;1.90;;;;;;;;;;5093588;28;20032;-64
2022/02/15 15:18:28;;;;;;;2.87;1.10;;;;;;;;;;5093201;28;20096;-64
2022/02/15 15:20:55;;;;;;;3.53;1.80;;;;;;;;;;5093490;28;20048;-63
2022/02/15 15:23:22;;;;;;;3.50;2.23;;;;;;;;;;5090719;28;20028;-64
2022/02/15 15:25:49;;;;;;;3.20;1.60;;;;;;;;;;5087863;28;20479;-64
2022/02/15 15:28:15;;;;;;;3.30;1.60;;;;;;;;;;5087735;28;20028;-64
2022/02/15 15:30:43;;;;;;;3.50;1.67;;;;;;;;;;5087968;28;20026;-64
2022/02/15 15:33:10;;;;;;;2.70;1.40;;;;;;;;;;5089448;28;20481;-64
2022/02/15 15:35:37;;;;;;;4.03;2.10;;;;;;;;;;5093230;28;20492;-64
2022/02/15 15:38:04;;;;;;;6.13;1.80;;;;;;;;;;5092955;28;20035;-64
2022/02/15 15:40:31;;;;;;;6.90;2.17;;;;;;;;;;5093090;28;20027;-64
2022/02/15 15:42:57;;;;;;;8.87;2.17;;;;;;;;;;5093084;28;20020;-64
2022/02/15 15:45:24;;;;;;;5.70;1.73;;;;;;;;;;5090703;28;20043;-64
2022/02/15 15:47:51;;;;;;;7.20;1.80;;;;;;;;;;5087363;28;20498;-64
2022/02/15 15:50:19;;;;;;;5.10;2.30;;;;;;;;;;5087326;28;20020;-64
2022/02/15 15:52:46;;;;;;;7.03;1.97;;;;;;;;;;5087162;28;20035;-64
2022/02/15 15:55:14;;;;;;;8.50;2.80;;;;;;;;;;5088932;28;20027;-64
2022/02/15 15:57:41;;;;;;;4.13;1.80;;;;;;;;;;5092993;28;20027;-64
2022/02/15 16:00:08;;;;;;;4.57;2.03;;;;;;;;;;5092562;28;20031;-64
2022/02/15 16:02:35;;;;;;;4.13;1.63;;;;;;;;;;5092998;28;20020;-64
2022/02/15 16:05:01;;;;;;;7.17;1.87;;;;;;;;;;5092601;28;20382;-64
2022/02/15 16:07:28;;;;;;;5.20;1.80;;;;;;;;;;5090299;28;20051;-65
2022/02/15 16:09:55;;;;;;;5.10;1.73;;;;;;;;;;5087073;28;20047;-64
2022/02/15 16:12:21;;;;;;;6.77;2.00;;;;;;;;;;5087029;28;20028;-64
2022/02/15 16:14:49;;;;;;;2.20;1.30;;;;;;;;;;5087155;28;20027;-67
2022/02/15 16:17:17;;;;;;;3.37;1.87;;;;;;;;;;5088165;28;20066;-64
2022/02/15 16:19:44;;;;;;;5.07;1.70;;;;;;;;;;5092484;28;20081;-64
2022/02/15 16:22:11;;;;;;;4.60;2.07;;;;;;;;;;5092400;28;20031;-64
2022/02/15 16:24:38;;;;;;;3.13;1.87;;;;;;;;;;5092523;28;20082;-65
2022/02/15 16:27:05;;;;;;;3.17;1.63;;;;;;;;;;5092481;28;20031;-64
2022/02/15 16:29:33;;;;;;;3.33;1.80;;;;;;;;;;5090476;28;20024;-65
2022/02/15 16:32:01;;;;;;;8.07;1.87;;;;;;;;;;5086803;28;20094;-65
2022/02/15 16:34:27;;;;;;;5.60;2.00;;;;;;;;;;5086621;28;20028;-65